Time;durP1;ratioP1;P1;durP2;ratioP2;P2;SDS_P1;SDS_P2;PMS_P1;PMS_P2;Temp;Humidity;BMP_temperature;BMP_pressure;BME280_temperature;BME280_humidity;BME280_pressure;Samples;Min_cycle;Max_cycle;Signal;HPM_P1;HPM_P2
2022/03/05 00:01:23;;;;;;;22.60;14.18;;;-1.40;99.90;;;;;;5115550;28;20072;-85
2022/03/05 00:03:49;;;;;;;22.45;12.70;;;-1.40;99.90;;;;;;5121728;28;20071;-86
2022/03/05 00:06:15;;;;;;;20.67;12.88;;;-0.80;99.90;;;;;;5125897;28;20044;-86
2022/03/05 00:08:41;;;;;;;18.70;12.10;;;0.00;99.90;;;;;;5093866;28;20051;-85
2022/03/05 00:11:07;;;;;;;24.20;13.00;;;-1.40;99.90;;;;;;5126427;28;20114;-86
2022/03/05 00:13:33;;;;;;;21.02;13.27;;;0.00;99.90;;;;;;5127875;28;20063;-86
2022/03/05 00:15:58;;;;;;;20.45;13.43;;;-1.50;99.90;;;;;;5116754;28;20048;-84
2022/03/05 00:18:24;;;;;;;21.00;13.10;;;-1.50;99.90;;;;;;5137260;28;20565;-85
2022/03/05 00:20:51;;;;;;;20.85;12.50;;;-1.50;99.90;;;;;;5118199;28;20023;-86
2022/03/05 00:23:18;;;;;;;18.50;12.10;;;-1.50;99.90;;;;;;5132902;28;20059;-86
2022/03/05 00:25:43;;;;;;;20.63;12.02;;;-0.70;99.90;;;;;;5112331;28;20031;-85
2022/03/05 00:28:09;;;;;;;20.15;11.80;;;-1.50;99.90;;;;;;5070200;28;20039;-87
2022/03/05 00:30:35;;;;;;;20.23;12.23;;;-1.50;99.90;;;;;;5097785;28;20171;-86
2022/03/05 00:33:01;;;;;;;17.33;11.30;;;-1.40;99.90;;;;;;5096670;28;20155;-86
2022/03/05 00:35:27;;;;;;;21.50;12.95;;;-0.50;99.90;;;;;;5113720;28;20049;-85
2022/03/05 00:37:53;;;;;;;20.15;11.93;;;-1.40;99.90;;;;;;5096855;28;20051;-86
2022/03/05 00:40:18;;;;;;;18.00;10.90;;;-0.50;99.90;;;;;;5113056;28;20054;-88
2022/03/05 00:42:44;;;;;;;19.05;11.95;;;-1.30;99.90;;;;;;5079812;28;20048;-87
2022/03/05 00:45:10;;;;;;;17.30;10.63;;;-1.30;99.90;;;;;;5096224;28;20048;-87
2022/03/05 00:47:36;;;;;;;17.23;10.43;;;-1.20;99.90;;;;;;5080002;28;20058;-87
2022/03/05 00:50:03;;;;;;;17.90;10.15;;;-1.20;99.90;;;;;;5079236;28;20047;-87
2022/03/05 00:52:28;;;;;;;18.35;10.85;;;-1.20;99.90;;;;;;5079058;28;20047;-87
2022/03/05 00:54:54;;;;;;;17.95;10.38;;;-1.20;99.90;;;;;;5113024;28;20096;-87
2022/03/05 00:57:20;;;;;;;15.65;10.25;;;0.10;99.90;;;;;;5095512;28;20083;-88
2022/03/05 00:59:46;;;;;;;17.45;10.98;;;-1.20;99.90;;;;;;5080166;28;20047;-88
2022/03/05 01:02:11;;;;;;;17.50;10.18;;;-0.50;99.90;;;;;;5097053;28;20048;-88
2022/03/05 01:04:37;;;;;;;17.40;10.05;;;-0.80;99.90;;;;;;5081359;28;20088;-88
2022/03/05 01:07:03;;;;;;;17.48;10.32;;;0.20;99.90;;;;;;5134443;28;20032;-88
2022/03/05 01:09:28;;;;;;;19.30;10.35;;;-1.30;99.90;;;;;;5103815;28;20376;-87
2022/03/05 01:11:54;;;;;;;17.73;10.63;;;-1.30;99.90;;;;;;5083472;28;20043;-87
2022/03/05 01:14:20;;;;;;;18.33;10.57;;;0.00;99.90;;;;;;5114840;28;20048;-88
2022/03/05 01:16:47;;;;;;;17.55;10.23;;;-1.30;99.90;;;;;;5100402;28;20054;-89
2022/03/05 01:19:13;;;;;;;19.88;10.48;;;-1.30;99.90;;;;;;5096218;28;20489;-87
2022/03/05 01:21:38;;;;;;;17.92;10.85;;;-1.30;99.90;;;;;;5080133;28;20052;-88
2022/03/05 01:24:04;;;;;;;17.00;10.60;;;-1.00;99.90;;;;;;5114720;28;20435;-88
2022/03/05 01:26:30;;;;;;;16.33;9.90;;;-1.30;99.90;;;;;;5112790;28;20241;-88
2022/03/05 01:28:56;;;;;;;19.73;10.55;;;-0.10;99.90;;;;;;5113310;28;20135;-91
2022/03/05 01:31:22;;;;;;;20.30;10.93;;;-0.60;99.90;;;;;;5095479;28;20112;-90
2022/03/05 01:33:47;;;;;;;18.20;11.02;;;-0.80;99.90;;;;;;5095344;28;20040;-90
2022/03/05 01:36:13;;;;;;;16.98;10.93;;;0.10;99.90;;;;;;5111719;28;20043;-85
2022/03/05 01:38:39;;;;;;;18.67;10.85;;;0.30;99.90;;;;;;5095664;28;20056;-88
2022/03/05 01:41:04;;;;;;;18.45;10.88;;;-1.20;99.90;;;;;;5095162;28;20368;-90
2022/03/05 01:43:30;;;;;;;19.13;11.05;;;-0.10;99.90;;;;;;5094308;28;20135;-89
2022/03/05 01:45:56;;;;;;;19.23;11.32;;;-0.70;99.90;;;;;;5095001;28;20051;-90
2022/03/05 01:48:21;;;;;;;16.58;10.27;;;-0.60;99.90;;;;;;5077274;28;20051;-91
2022/03/05 01:50:47;;;;;;;19.02;10.98;;;-1.20;99.90;;;;;;5111888;28;20368;-92
2022/03/05 01:53:13;;;;;;;18.83;10.60;;;-1.20;99.90;;;;;;5095430;28;20040;-89
2022/03/05 01:55:39;;;;;;;17.25;10.80;;;-0.10;99.90;;;;;;5094443;28;20090;-90
2022/03/05 01:58:05;;;;;;;19.85;10.85;;;-0.30;99.90;;;;;;5078482;28;20506;-91
2022/03/05 02:00:30;;;;;;;16.58;11.18;;;-1.20;99.90;;;;;;5060782;28;20330;-92
2022/03/05 02:02:56;;;;;;;21.15;10.55;;;-0.50;99.90;;;;;;5078282;28;20055;-90
2022/03/05 02:05:23;;;;;;;18.63;11.25;;;-1.30;99.90;;;;;;5060763;28;20086;-91
2022/03/05 02:07:49;;;;;;;18.65;11.02;;;-0.20;99.90;;;;;;5112184;28;20047;-91
2022/03/05 02:10:15;;;;;;;18.95;10.55;;;-1.20;99.90;;;;;;5078307;28;20051;-88
2022/03/05 02:12:40;;;;;;;18.00;10.40;;;-1.20;99.90;;;;;;5081413;28;20047;-89
2022/03/05 02:15:07;;;;;;;18.15;10.35;;;-1.10;99.90;;;;;;5117524;27;20043;-86
2022/03/05 02:17:33;;;;;;;16.58;10.07;;;-1.20;99.90;;;;;;5121654;27;20056;-91
2022/03/05 02:19:58;;;;;;;16.77;10.32;;;-1.10;99.90;;;;;;5108945;27;20051;-85
2022/03/05 02:22:25;;;;;;;14.57;8.50;;;0.40;99.90;;;;;;5101002;27;20043;-92
2022/03/05 02:24:59;;;;;;;17.13;10.10;;;-1.10;99.90;;;;;;5080959;27;20043;-90
2022/03/05 02:27:25;;;;;;;16.20;9.95;;;-1.10;99.90;;;;;;5097957;27;20486;-90
2022/03/05 02:29:51;;;;;;;15.70;9.95;;;-0.60;99.90;;;;;;5098365;27;20163;-92
2022/03/05 02:32:17;;;;;;;17.25;10.77;;;0.00;99.90;;;;;;5123798;27;20082;-90
2022/03/05 02:34:43;;;;;;;19.48;10.88;;;-1.20;99.90;;;;;;5144212;27;20050;-92
2022/03/05 02:37:13;;;;;;;17.48;10.35;;;-1.10;99.90;;;;;;5110406;28;20101;-91
2022/03/05 02:39:39;;;;;;;17.98;10.73;;;-1.40;99.90;;;;;;5123136;27;20051;-92
2022/03/05 02:42:05;;;;;;;17.88;10.85;;;-1.40;99.90;;;;;;5133423;27;20725;-90
2022/03/05 02:44:31;;;;;;;20.02;11.00;;;-1.40;99.90;;;;;;5132224;27;20071;-90
2022/03/05 02:46:58;;;;;;;16.52;10.13;;;-1.30;99.90;;;;;;5115625;27;20470;-91
2022/03/05 02:49:24;;;;;;;19.35;11.13;;;-1.10;99.90;;;;;;5114746;27;20075;-90
2022/03/05 02:51:51;;;;;;;17.38;10.38;;;-1.40;99.90;;;;;;5098090;27;20047;-91
2022/03/05 02:54:16;;;;;;;19.02;10.88;;;-1.50;99.90;;;;;;5081247;27;20062;-91
2022/03/05 02:56:42;;;;;;;17.55;11.13;;;-0.20;99.90;;;;;;5096936;27;20050;-90
2022/03/05 02:59:12;;;;;;;19.13;10.88;;;-1.50;99.90;;;;;;5115376;28;20077;-91
2022/03/05 03:01:38;;;;;;;16.77;10.73;;;-1.50;99.90;;;;;;5131141;28;20039;-90
2022/03/05 03:04:04;;;;;;;19.88;11.38;;;-1.60;99.90;;;;;;5114971;28;20051;-93
2022/03/05 03:06:30;;;;;;;17.38;10.38;;;-1.60;99.90;;;;;;5096726;28;20054;-92
2022/03/05 03:08:55;;;;;;;19.02;10.38;;;-1.70;99.90;;;;;;5114523;28;20057;-92
2022/03/05 03:11:21;;;;;;;18.50;11.40;;;-1.70;99.90;;;;;;5114451;28;20062;-90
2022/03/05 03:13:47;;;;;;;18.30;11.38;;;-1.60;99.90;;;;;;5096676;28;20043;-91
2022/03/05 03:16:13;;;;;;;17.38;10.60;;;-1.70;99.90;;;;;;5060976;28;20048;-90
2022/03/05 03:18:38;;;;;;;21.25;11.30;;;-1.70;99.90;;;;;;5110252;28;20055;-92
2022/03/05 03:21:04;;;;;;;18.42;11.18;;;-1.50;99.90;;;;;;5122513;28;20027;-86
2022/03/05 03:23:30;;;;;;;18.55;10.85;;;-1.70;99.90;;;;;;5094780;28;20131;-91
2022/03/05 03:25:55;;;;;;;18.70;10.95;;;-1.70;99.90;;;;;;5076551;28;20056;-91
2022/03/05 03:28:21;;;;;;;17.40;11.23;;;-0.30;99.90;;;;;;5093464;28;20104;-90
2022/03/05 03:30:47;;;;;;;17.73;11.15;;;-1.10;99.90;;;;;;5128390;27;20139;-91
2022/03/05 03:33:12;;;;;;;20.52;10.85;;;-1.90;99.90;;;;;;5131582;27;20136;-89
2022/03/05 03:35:38;;;;;;;19.98;11.20;;;-0.80;99.90;;;;;;5113780;28;20060;-90
2022/03/05 03:38:04;;;;;;;20.83;11.85;;;-1.80;99.90;;;;;;5097357;28;20043;-89
2022/03/05 03:40:29;;;;;;;19.25;11.00;;;-0.70;99.90;;;;;;5113711;28;20045;-90
2022/03/05 03:42:55;;;;;;;18.52;11.20;;;-1.80;99.90;;;;;;5115667;28;20489;-91
2022/03/05 03:45:21;;;;;;;18.67;11.43;;;0.00;99.90;;;;;;5131460;27;20044;-91
2022/03/05 03:47:48;;;;;;;19.70;11.00;;;-0.40;99.90;;;;;;5096672;28;20051;-91
2022/03/05 03:50:15;;;;;;;18.33;11.07;;;-0.80;99.90;;;;;;5097165;28;20055;-92
2022/03/05 03:52:40;;;;;;;19.25;10.95;;;-1.50;99.90;;;;;;5079687;28;20044;-90
2022/03/05 03:55:07;;;;;;;18.13;10.80;;;-1.90;99.90;;;;;;5113474;28;20051;-92
2022/03/05 03:57:33;;;;;;;17.75;11.25;;;-1.90;99.90;;;;;;5113474;28;20059;-92
2022/03/05 03:59:59;;;;;;;19.45;10.82;;;-1.90;99.90;;;;;;5096862;28;20052;-89
2022/03/05 04:02:25;;;;;;;19.45;11.70;;;-0.40;99.90;;;;;;5131115;27;20701;-91
2022/03/05 04:04:50;;;;;;;18.10;10.65;;;-1.50;99.90;;;;;;5081906;28;20557;-90
2022/03/05 04:10:00;;;;;;;19.17;11.68;;;-1.90;99.90;;;;;;5120956;28;20075;-88
2022/03/05 04:12:26;;;;;;;20.30;11.95;;;-1.00;99.90;;;;;;5091998;28;20047;-92
2022/03/05 04:14:54;;;;;;;18.77;11.10;;;-1.80;99.90;;;;;;5135360;27;20542;-91
2022/03/05 04:17:20;;;;;;;17.98;11.82;;;-1.20;99.90;;;;;;5116617;28;20040;-88
2022/03/05 04:19:45;;;;;;;21.60;11.98;;;-1.60;99.90;;;;;;5102871;28;20106;-90
2022/03/05 04:22:11;;;;;;;22.25;11.57;;;-2.00;99.90;;;;;;5080619;28;20167;-91
2022/03/05 04:24:37;;;;;;;18.38;11.20;;;-2.10;99.90;;;;;;5096751;28;20047;-90
2022/03/05 04:27:03;;;;;;;22.70;12.15;;;-2.10;99.90;;;;;;5131302;27;20142;-91
2022/03/05 04:29:29;;;;;;;17.42;11.57;;;-2.10;99.90;;;;;;5081737;28;20055;-90
2022/03/05 04:31:55;;;;;;;21.98;12.15;;;-2.10;99.90;;;;;;5096697;28;20579;-90
2022/03/05 04:34:21;;;;;;;17.65;12.15;;;-2.10;99.90;;;;;;5096857;28;20055;-90
2022/03/05 04:36:46;;;;;;;16.60;11.27;;;-2.10;99.90;;;;;;5113072;28;20048;-89
2022/03/05 04:39:12;;;;;;;18.20;11.68;;;-0.90;99.90;;;;;;5079002;28;20066;-89
2022/03/05 04:41:38;;;;;;;20.45;12.38;;;-2.10;99.90;;;;;;5111899;28;20082;-90
2022/03/05 04:44:04;;;;;;;18.77;11.68;;;-2.20;99.90;;;;;;5095952;28;20051;-90
2022/03/05 04:46:29;;;;;;;18.90;12.10;;;-2.20;99.90;;;;;;5129901;27;20048;-89
2022/03/05 04:48:55;;;;;;;18.75;11.95;;;-1.60;99.90;;;;;;5112242;28;20070;-88
2022/03/05 04:51:21;;;;;;;19.88;12.45;;;-2.20;99.90;;;;;;5100024;28;20130;-89
2022/03/05 04:53:47;;;;;;;19.95;12.27;;;-2.20;99.90;;;;;;5119141;28;20050;-90
2022/03/05 04:56:12;;;;;;;17.27;10.88;;;-1.80;99.90;;;;;;5092616;28;20128;-89
2022/03/05 04:58:38;;;;;;;17.70;11.93;;;-1.90;99.90;;;;;;5083234;28;20053;-91
2022/03/05 05:01:04;;;;;;;18.20;11.95;;;-2.20;99.90;;;;;;5085126;28;20162;-90
2022/03/05 05:03:30;;;;;;;18.90;11.57;;;-1.70;99.90;;;;;;5099518;28;20047;-89
2022/03/05 05:05:56;;;;;;;20.10;12.52;;;-2.20;99.90;;;;;;5113837;28;20075;-89
2022/03/05 05:08:22;;;;;;;20.73;11.95;;;-2.20;99.90;;;;;;5095508;28;20123;-89
2022/03/05 05:10:48;;;;;;;18.45;11.15;;;-2.20;99.90;;;;;;5129259;27;20131;-90
2022/03/05 05:13:13;;;;;;;19.13;11.27;;;-1.90;99.90;;;;;;5078765;28;20493;-90
2022/03/05 05:15:39;;;;;;;21.02;11.85;;;-2.20;99.90;;;;;;5129339;27;20048;-89
2022/03/05 05:18:05;;;;;;;19.10;11.52;;;-2.40;99.90;;;;;;5078310;28;20043;-89
2022/03/05 05:20:31;;;;;;;19.40;11.43;;;-2.20;99.90;;;;;;5111987;28;20499;-88
2022/03/05 05:22:57;;;;;;;19.83;11.63;;;-1.20;99.90;;;;;;5111184;28;20211;-90
2022/03/05 05:25:22;;;;;;;20.08;11.93;;;-1.10;99.90;;;;;;5113456;28;20055;-88
2022/03/05 05:27:48;;;;;;;21.17;11.20;;;-1.40;99.90;;;;;;5094917;28;20051;-89
2022/03/05 05:30:14;;;;;;;17.00;11.20;;;-2.20;99.90;;;;;;5095718;28;20101;-89
2022/03/05 05:32:39;;;;;;;17.17;11.25;;;-2.10;99.90;;;;;;5116924;28;20474;-85
2022/03/05 05:35:05;;;;;;;19.15;11.20;;;-2.10;99.90;;;;;;5100299;28;20048;-88
2022/03/05 05:37:31;;;;;;;18.40;11.73;;;-2.10;99.90;;;;;;5133458;27;20051;-90
2022/03/05 05:39:57;;;;;;;19.30;12.18;;;-2.10;99.90;;;;;;5096935;28;20503;-88
2022/03/05 05:42:23;;;;;;;18.98;11.43;;;-2.10;99.90;;;;;;5082741;28;20062;-89
2022/03/05 05:44:48;;;;;;;20.45;11.38;;;-2.10;99.90;;;;;;5105260;28;20059;-89
2022/03/05 05:47:14;;;;;;;21.35;12.30;;;-2.10;99.90;;;;;;5089199;28;20035;-89
2022/03/05 05:49:40;;;;;;;17.98;10.88;;;-2.10;99.90;;;;;;5078565;28;20576;-86
2022/03/05 05:52:06;;;;;;;21.77;11.77;;;-2.00;99.90;;;;;;5077424;28;20055;-89
2022/03/05 05:54:31;;;;;;;20.75;12.10;;;-2.00;99.90;;;;;;5093397;28;20071;-88
2022/03/05 05:56:57;;;;;;;21.58;11.25;;;-2.00;99.90;;;;;;5110859;28;20066;-89
2022/03/05 05:59:23;;;;;;;23.85;12.52;;;-2.00;99.90;;;;;;5077738;28;20048;-88
2022/03/05 06:01:48;;;;;;;19.13;11.65;;;-2.00;99.90;;;;;;5093641;28;20047;-89
2022/03/05 06:04:14;;;;;;;18.95;11.50;;;-2.00;99.90;;;;;;5111068;28;20109;-90
2022/03/05 06:06:40;;;;;;;18.20;11.15;;;-1.30;99.90;;;;;;5077396;28;20079;-89
2022/03/05 06:09:06;;;;;;;20.90;11.75;;;-2.00;99.90;;;;;;5077038;28;20641;-90
2022/03/05 06:11:31;;;;;;;19.40;11.18;;;-2.00;99.90;;;;;;5094222;28;20062;-89
2022/03/05 06:13:57;;;;;;;19.08;12.57;;;-2.00;99.90;;;;;;5076207;28;20479;-90
2022/03/05 06:16:23;;;;;;;21.55;11.70;;;-2.00;99.90;;;;;;5077202;28;20059;-90
2022/03/05 06:18:48;;;;;;;21.02;11.82;;;-0.70;99.90;;;;;;5093355;28;20101;-87
2022/03/05 06:21:14;;;;;;;21.05;11.95;;;-1.90;99.90;;;;;;5076880;28;20052;-88
2022/03/05 06:23:40;;;;;;;19.17;11.65;;;-1.10;99.90;;;;;;5093564;28;20737;-90
2022/03/05 06:26:06;;;;;;;19.70;11.60;;;-2.00;99.90;;;;;;5076297;28;20044;-89
2022/03/05 06:28:32;;;;;;;20.30;11.82;;;-1.20;99.90;;;;;;5076437;28;20058;-89
2022/03/05 06:30:58;;;;;;;19.95;11.50;;;-2.20;99.90;;;;;;5059274;28;20381;-90
2022/03/05 06:33:23;;;;;;;22.15;11.60;;;-1.90;99.90;;;;;;5076188;28;20096;-89
2022/03/05 06:35:49;;;;;;;21.25;11.52;;;-1.90;99.90;;;;;;5094515;28;20134;-90
2022/03/05 06:38:15;;;;;;;17.88;10.77;;;-1.90;99.90;;;;;;5076850;28;20047;-89
2022/03/05 06:40:41;;;;;;;19.65;11.60;;;-1.90;99.90;;;;;;5076536;28;20055;-89
2022/03/05 06:43:06;;;;;;;18.70;11.45;;;-0.60;99.90;;;;;;5092644;28;20707;-89
2022/03/05 06:45:32;;;;;;;16.15;10.80;;;-0.60;99.90;;;;;;5110195;28;20051;-90
2022/03/05 06:47:58;;;;;;;15.68;10.85;;;-0.20;99.90;;;;;;5092621;28;20051;-89
2022/03/05 06:50:23;;;;;;;17.58;11.18;;;-0.80;99.90;;;;;;5093493;28;20134;-89
2022/03/05 06:52:49;;;;;;;16.05;10.20;;;-1.60;99.90;;;;;;5092523;28;20048;-86
2022/03/05 06:55:16;;;;;;;17.35;10.38;;;-1.40;99.90;;;;;;5075895;28;20087;-90
2022/03/05 06:57:43;;;;;;;14.55;9.65;;;-1.10;99.90;;;;;;5076922;28;20050;-91
2022/03/05 07:00:09;;;;;;;15.93;9.75;;;0.20;99.90;;;;;;5076031;28;20047;-88
2022/03/05 07:02:35;;;;;;;19.38;9.80;;;0.00;99.90;;;;;;5076474;28;20074;-91
2022/03/05 07:05:01;;;;;;;17.15;9.38;;;0.50;99.90;;;;;;5075717;28;20052;-90
2022/03/05 07:07:26;;;;;;;13.98;9.10;;;1.00;99.90;;;;;;5076508;28;20040;-89
2022/03/05 07:09:52;;;;;;;14.60;8.30;;;1.10;99.90;;;;;;5111238;28;20051;-89
2022/03/05 07:12:18;;;;;;;13.48;8.65;;;1.20;99.90;;;;;;5088669;28;20139;-87
2022/03/05 07:14:48;;;;;;;11.43;8.65;;;1.10;99.90;;;;;;5115088;28;20043;-90
2022/03/05 07:17:18;;;;;;;14.20;8.90;;;1.30;99.90;;;;;;5084139;28;20044;-88
2022/03/05 07:19:44;;;;;;;14.60;8.20;;;1.10;99.90;;;;;;5064254;28;20059;-90
2022/03/05 07:22:09;;;;;;;11.80;8.60;;;1.80;99.90;;;;;;5128949;28;20155;-89
2022/03/05 07:24:35;;;;;;;12.98;8.02;;;1.80;99.90;;;;;;5096772;28;20467;-90
2022/03/05 07:27:01;;;;;;;16.40;8.05;;;1.90;99.90;;;;;;5077141;28;20051;-89
2022/03/05 07:29:26;;;;;;;11.88;8.48;;;2.50;99.90;;;;;;5093814;28;20066;-85
2022/03/05 07:31:52;;;;;;;13.32;8.25;;;3.80;99.90;;;;;;5112780;28;20143;-84
2022/03/05 07:34:18;;;;;;;14.07;9.07;;;4.00;99.90;;;;;;5129397;28;20035;-85
2022/03/05 07:36:43;;;;;;;12.10;8.02;;;3.90;99.90;;;;;;5106206;28;20048;-90
2022/03/05 07:39:09;;;;;;;12.73;8.50;;;4.10;99.90;;;;;;5092260;28;20052;-87
2022/03/05 07:41:36;;;;;;;12.50;8.60;;;4.30;99.90;;;;;;5110053;28;20047;-87
2022/03/05 07:44:03;;;;;;;11.93;8.63;;;4.80;99.90;;;;;;5108958;28;20428;-87
2022/03/05 07:46:28;;;;;;;11.93;8.57;;;4.90;99.90;;;;;;5095708;28;21382;-88
2022/03/05 07:48:54;;;;;;;13.65;8.20;;;4.70;99.90;;;;;;5111853;28;20031;-83
2022/03/05 07:51:20;;;;;;;13.70;8.90;;;4.60;99.90;;;;;;5112285;28;20047;-86
2022/03/05 07:53:45;;;;;;;12.75;8.73;;;4.40;99.90;;;;;;5092355;28;20039;-87
2022/03/05 07:56:11;;;;;;;11.13;8.82;;;4.50;99.90;;;;;;5109657;28;20063;-86
2022/03/05 07:58:37;;;;;;;14.82;9.38;;;4.50;99.90;;;;;;5110303;28;20483;-85
2022/03/05 08:01:02;;;;;;;17.33;8.52;;;4.90;99.90;;;;;;5128973;28;20059;-87
2022/03/05 08:03:28;;;;;;;17.48;10.52;;;5.80;99.90;;;;;;5105523;28;20135;-86
2022/03/05 08:05:54;;;;;;;17.70;9.13;;;5.70;99.90;;;;;;5110830;28;20547;-84
2022/03/05 08:08:19;;;;;;;13.98;9.10;;;6.00;99.90;;;;;;5093594;28;20042;-85
2022/03/05 08:10:45;;;;;;;13.05;9.02;;;6.30;99.90;;;;;;5091703;28;20075;-84
2022/03/05 08:13:12;;;;;;;15.23;9.65;;;7.10;99.90;;;;;;5108034;28;20048;-86
2022/03/05 08:15:38;;;;;;;14.65;9.80;;;6.30;99.90;;;;;;5108245;28;20476;-85
2022/03/05 08:18:03;;;;;;;16.08;10.18;;;6.00;99.90;;;;;;5116652;27;20145;-85
2022/03/05 08:20:30;;;;;;;15.52;9.43;;;6.30;99.90;;;;;;5079651;27;20050;-85
2022/03/05 08:22:56;;;;;;;14.23;9.98;;;6.50;99.90;;;;;;5132160;27;20043;-85
2022/03/05 08:25:22;;;;;;;14.60;9.95;;;7.00;99.90;;;;;;5114419;27;20084;-84
2022/03/05 08:27:47;;;;;;;15.63;10.68;;;7.30;99.90;;;;;;5111962;27;20043;-85
2022/03/05 08:30:13;;;;;;;16.60;10.88;;;7.80;99.90;;;;;;5128963;27;20066;-84
2022/03/05 08:32:39;;;;;;;14.55;10.02;;;7.50;99.90;;;;;;5115246;27;20471;-85
2022/03/05 08:35:05;;;;;;;16.20;10.18;;;7.60;99.90;;;;;;5080523;28;20653;-84
2022/03/05 08:37:31;;;;;;;14.10;10.25;;;7.60;99.90;;;;;;5080587;28;20036;-85
2022/03/05 08:39:57;;;;;;;16.13;10.85;;;7.20;99.90;;;;;;5093473;27;20493;-84
2022/03/05 08:42:23;;;;;;;19.85;12.15;;;7.00;99.90;;;;;;5114640;27;20051;-85
2022/03/05 08:44:49;;;;;;;17.58;10.70;;;7.20;99.90;;;;;;5109859;27;20041;-86
2022/03/05 08:47:15;;;;;;;18.27;11.02;;;7.10;99.90;;;;;;5097677;27;20046;-84
2022/03/05 08:49:41;;;;;;;16.52;11.55;;;7.10;99.90;;;;;;5136660;27;20047;-85
2022/03/05 08:52:07;;;;;;;15.02;10.85;;;7.60;99.90;;;;;;5116831;27;20051;-83
2022/03/05 08:54:32;;;;;;;16.58;12.10;;;7.70;99.90;;;;;;5090208;27;20513;-84
2022/03/05 08:56:58;;;;;;;15.38;11.02;;;7.30;99.90;;;;;;5125312;27;20380;-83
2022/03/05 08:59:24;;;;;;;16.17;11.57;;;7.30;99.90;;;;;;5111904;27;20061;-84
2022/03/05 09:01:49;;;;;;;14.43;9.88;;;7.60;99.90;;;;;;5127962;27;20042;-84
2022/03/05 09:04:15;;;;;;;17.05;11.68;;;7.70;99.90;;;;;;5118358;27;20101;-84
2022/03/05 09:06:41;;;;;;;17.58;11.60;;;7.30;99.90;;;;;;5121344;27;20047;-83
2022/03/05 09:09:06;;;;;;;19.55;11.50;;;7.40;99.90;;;;;;5124860;27;20058;-85
2022/03/05 09:11:32;;;;;;;18.95;12.40;;;7.30;99.90;;;;;;5122974;27;20486;-84
2022/03/05 09:13:58;;;;;;;25.42;12.60;;;7.10;99.90;;;;;;5106144;27;20039;-85
2022/03/05 09:16:24;;;;;;;18.05;11.65;;;8.50;99.90;;;;;;5123118;27;20039;-84
2022/03/05 09:18:49;;;;;;;24.13;12.73;;;7.90;99.90;;;;;;5111111;27;20054;-83
2022/03/05 09:21:15;;;;;;;21.48;13.40;;;7.70;99.90;;;;;;5102177;28;20043;-82
2022/03/05 09:23:41;;;;;;;19.10;12.20;;;8.10;99.90;;;;;;5123874;27;20051;-83
2022/03/05 09:26:06;;;;;;;17.38;11.80;;;7.70;99.90;;;;;;5109738;27;20130;-82
2022/03/05 09:28:32;;;;;;;18.65;12.27;;;8.10;99.90;;;;;;5129422;27;20047;-84
2022/03/05 09:30:58;;;;;;;17.88;11.88;;;8.30;99.90;;;;;;5110830;27;20043;-86
2022/03/05 09:33:25;;;;;;;20.95;12.25;;;7.80;99.90;;;;;;5105670;27;20125;-85
2022/03/05 09:35:51;;;;;;;19.02;12.85;;;8.60;99.90;;;;;;5132803;27;20057;-84
2022/03/05 09:38:17;;;;;;;20.02;12.48;;;8.70;99.90;;;;;;5113632;27;20047;-84
2022/03/05 09:40:42;;;;;;;19.40;13.25;;;8.30;99.90;;;;;;5130736;27;20070;-84
2022/03/05 09:43:08;;;;;;;19.60;12.82;;;8.10;99.90;;;;;;5121703;27;20103;-84
2022/03/05 09:45:34;;;;;;;20.00;13.23;;;8.30;99.90;;;;;;5128317;27;20126;-85
2022/03/05 09:47:59;;;;;;;23.52;13.50;;;8.50;99.90;;;;;;5093830;28;20046;-85
2022/03/05 09:50:28;;;;;;;22.48;13.25;;;8.00;99.90;;;;;;5111632;27;20039;-85
2022/03/05 09:52:55;;;;;;;20.08;12.70;;;8.00;99.90;;;;;;5117498;27;20043;-87
2022/03/05 09:55:20;;;;;;;24.08;13.93;;;7.00;99.90;;;;;;5081892;27;20063;-85
2022/03/05 09:57:46;;;;;;;19.00;12.82;;;6.70;99.90;;;;;;5109610;27;20043;-83
2022/03/05 10:00:12;;;;;;;20.55;13.63;;;7.00;99.90;;;;;;5102860;27;20051;-83
2022/03/05 10:02:47;;;;;;;20.90;13.82;;;6.40;99.90;;;;;;5120061;27;20065;-83
2022/03/05 10:05:29;;;;;;;22.52;12.15;;;6.20;99.90;;;;;;5101623;27;20138;-83
2022/03/05 10:08:12;;;;;;;20.85;13.00;;;6.00;99.90;;;;;;5103014;27;20132;-83
2022/03/05 10:10:51;;;;;;;23.15;13.43;;;5.90;99.90;;;;;;5119938;27;20082;-82
2022/03/05 10:13:28;;;;;;;21.10;13.18;;;6.20;99.90;;;;;;5122068;27;20058;-84
2022/03/05 10:15:56;;;;;;;23.13;13.85;;;6.40;99.90;;;;;;5127291;27;20047;-83
2022/03/05 10:18:26;;;;;;;21.77;13.32;;;6.20;99.90;;;;;;5091423;27;20085;-82
2022/03/05 10:20:52;;;;;;;21.10;13.98;;;6.20;99.90;;;;;;5122351;27;20107;-83
2022/03/05 10:23:18;;;;;;;26.17;14.27;;;6.00;99.90;;;;;;5119606;27;20491;-84
2022/03/05 10:26:03;;;;;;;22.38;13.02;;;6.00;99.90;;;;;;5105985;27;20425;-83
2022/03/05 10:28:29;;;;;;;25.13;14.70;;;5.90;99.90;;;;;;5087748;27;20092;-83
2022/03/05 10:31:02;;;;;;;23.38;14.75;;;5.80;99.90;;;;;;5130336;27;20083;-88
2022/03/05 10:33:35;;;;;;;25.45;14.88;;;6.00;99.90;;;;;;5098131;27;20050;-88
2022/03/05 10:36:05;;;;;;;25.08;14.98;;;6.50;99.90;;;;;;5130551;27;20055;-84
2022/03/05 10:38:51;;;;;;;23.50;15.05;;;7.10;99.90;;;;;;5125959;27;20058;-86
2022/03/05 10:41:19;;;;;;;23.30;14.00;;;6.80;99.90;;;;;;5129332;27;20051;-84
2022/03/05 10:44:10;;;;;;;26.33;14.05;;;6.70;99.90;;;;;;5113154;27;20047;-83
2022/03/05 10:46:37;;;;;;;25.63;14.40;;;6.40;99.90;;;;;;5111779;27;20493;-84
2022/03/05 10:49:15;;;;;;;24.58;15.00;;;6.80;99.90;;;;;;5090450;27;20526;-83
2022/03/05 10:51:43;;;;;;;21.58;13.10;;;6.60;99.90;;;;;;5118349;27;20395;-84
2022/03/05 10:54:10;;;;;;;27.13;15.38;;;6.60;99.90;;;;;;5107584;28;20564;-84
2022/03/05 10:56:35;;;;;;;27.98;15.75;;;6.50;99.90;;;;;;5119741;27;20054;-84
2022/03/05 10:59:08;;;;;;;27.33;15.15;;;6.50;99.90;;;;;;5112810;27;20040;-85
2022/03/05 11:01:36;;;;;;;28.30;15.18;;;6.60;99.90;;;;;;5127958;27;20558;-86
2022/03/05 11:04:03;;;;;;;23.58;13.95;;;6.90;99.90;;;;;;5130757;28;20059;-83
2022/03/05 11:06:28;;;;;;;26.60;15.20;;;6.80;99.90;;;;;;5112725;28;20442;-84
2022/03/05 11:08:54;;;;;;;27.75;16.27;;;7.50;99.90;;;;;;5113663;28;20120;-85
2022/03/05 11:11:20;;;;;;;25.85;15.77;;;6.80;99.90;;;;;;5113158;28;20043;-86
2022/03/05 11:13:46;;;;;;;26.20;15.77;;;6.50;99.90;;;;;;5095536;28;20039;-85
2022/03/05 11:16:12;;;;;;;26.67;15.35;;;6.60;99.90;;;;;;5124253;28;20486;-84
2022/03/05 11:18:38;;;;;;;26.00;14.60;;;6.40;99.90;;;;;;5112381;28;20054;-83
2022/03/05 11:21:04;;;;;;;24.30;14.57;;;6.10;99.90;;;;;;5089474;28;20065;-84
2022/03/05 11:23:30;;;;;;;26.65;14.98;;;6.10;99.90;;;;;;5106276;28;20107;-84
2022/03/05 11:25:56;;;;;;;27.30;15.80;;;6.00;99.90;;;;;;5131632;28;20040;-84
2022/03/05 11:28:25;;;;;;;27.90;13.93;;;6.00;99.90;;;;;;5101759;28;20047;-82
2022/03/05 11:30:54;;;;;;;28.52;16.45;;;6.00;99.90;;;;;;5119130;28;20114;-82
2022/03/05 11:33:21;;;;;;;29.48;16.83;;;6.10;99.90;;;;;;5121708;28;20042;-81
2022/03/05 11:35:48;;;;;;;26.10;15.18;;;6.10;99.90;;;;;;5126421;28;20049;-82
2022/03/05 11:38:37;;;;;;;25.70;14.10;;;6.50;99.90;;;;;;5138687;27;20054;-83
2022/03/05 11:41:27;;;;;;;28.55;16.48;;;6.50;99.90;;;;;;5114326;28;20040;-83
2022/03/05 11:43:53;;;;;;;28.50;16.33;;;6.40;99.90;;;;;;5112463;28;20110;-84
2022/03/05 11:46:26;;;;;;;29.35;16.10;;;6.40;99.90;;;;;;5105910;28;20073;-83
2022/03/05 11:49:25;;;;;;;26.23;15.43;;;6.30;99.90;;;;;;5131289;28;20043;-84
2022/03/05 11:51:51;;;;;;;29.88;16.48;;;6.00;99.90;;;;;;5124784;27;20054;-85
2022/03/05 11:54:17;;;;;;;26.58;15.73;;;6.40;99.90;;;;;;5118641;27;20056;-84
2022/03/05 11:57:02;;;;;;;27.00;15.82;;;6.50;99.90;;;;;;5128563;27;20491;-84
2022/03/05 11:59:35;;;;;;;28.15;16.35;;;6.40;99.90;;;;;;5130698;27;20058;-85
2022/03/05 12:02:01;;;;;;;30.83;17.23;;;6.60;99.90;;;;;;5100193;27;20043;-85
2022/03/05 12:04:28;;;;;;;31.90;17.63;;;6.60;99.90;;;;;;5147714;27;20094;-84
2022/03/05 12:07:12;;;;;;;25.17;14.82;;;6.60;99.90;;;;;;5138340;27;20047;-82
2022/03/05 12:09:43;;;;;;;26.08;16.98;;;6.70;99.90;;;;;;5130450;27;20076;-84
2022/03/05 12:12:14;;;;;;;25.02;14.52;;;6.70;99.90;;;;;;5150710;27;20114;-85
2022/03/05 12:14:59;;;;;;;26.83;16.48;;;6.80;99.90;;;;;;5125493;27;20043;-84
2022/03/05 12:17:41;;;;;;;26.08;14.63;;;6.90;99.90;;;;;;5144197;27;20501;-83
2022/03/05 12:20:12;;;;;;;26.73;16.45;;;6.90;99.90;;;;;;5087351;28;20127;-86
2022/03/05 12:22:58;;;;;;;28.33;16.50;;;6.90;99.90;;;;;;5118506;27;20052;-85
2022/03/05 12:25:37;;;;;;;25.95;16.08;;;6.80;99.90;;;;;;5096921;27;20487;-86
2022/03/05 12:28:04;;;;;;;27.50;15.73;;;6.90;99.90;;;;;;5119613;27;20043;-87
2022/03/05 12:30:35;;;;;;;28.38;16.45;;;7.10;99.90;;;;;;5117004;27;20051;-84
2022/03/05 12:33:02;;;;;;;26.80;15.38;;;6.90;99.90;;;;;;5118467;27;20054;-83
2022/03/05 12:35:28;;;;;;;27.20;16.92;;;7.00;99.90;;;;;;5099327;27;20521;-83